createdAt,value
2022-11-18T00:02:01.162Z,12.03
2022-11-18T00:04:47.964Z,12.63
2022-11-18T00:07:34.522Z,11.97
2022-11-18T00:10:21.525Z,14.27
2022-11-18T00:13:25.112Z,12.27
2022-11-18T00:16:14.088Z,15.23
2022-11-18T00:19:00.575Z,12.73
2022-11-18T00:21:47.079Z,15.97
2022-11-18T00:24:33.841Z,13.57
2022-11-18T00:27:20.364Z,12.07
2022-11-18T00:30:07.837Z,10.90
2022-11-18T00:32:55.863Z,10.80
2022-11-18T00:35:42.643Z,12.73
2022-11-18T00:38:30.301Z,11.73
2022-11-18T00:41:17.495Z,10.57
2022-11-18T00:44:09.170Z,11.97
2022-11-18T00:46:56.317Z,11.63
2022-11-18T00:49:44.599Z,9.13
2022-11-18T00:52:31.415Z,9.73
2022-11-18T00:55:17.911Z,8.93
2022-11-18T00:58:04.668Z,10.17
2022-11-18T01:00:52.966Z,10.23
2022-11-18T01:03:39.679Z,13.60
2022-11-18T01:06:27.922Z,10.77
2022-11-18T01:09:14.591Z,12.53
2022-11-18T01:12:18.509Z,13.13
2022-11-18T01:15:05.673Z,13.40
2022-11-18T01:17:52.106Z,12.77
2022-11-18T01:20:39.057Z,11.47
2022-11-18T01:23:26.878Z,12.80
2022-11-18T01:26:16.725Z,13.33
2022-11-18T01:29:03.233Z,13.63
2022-11-18T01:32:22.296Z,12.00
2022-11-18T01:34:56.167Z,13.33
2022-11-18T01:37:42.627Z,14.97
2022-11-18T01:40:31.318Z,12.10
2022-11-18T01:43:20.944Z,12.00
2022-11-18T01:46:08.721Z,11.33
2022-11-18T01:49:00.199Z,13.17
2022-11-18T01:51:50.625Z,10.67
2022-11-18T01:54:41.082Z,9.97
2022-11-18T01:57:32.309Z,10.47
2022-11-18T02:00:19.274Z,13.10
2022-11-18T02:03:05.830Z,12.47
2022-11-18T02:05:54.773Z,12.63
2022-11-18T02:08:42.435Z,14.23
2022-11-18T02:11:46.445Z,13.80
2022-11-18T02:14:37.881Z,13.47
2022-11-18T02:17:34.860Z,12.37
2022-11-18T02:20:29.650Z,12.30
2022-11-18T02:23:59.276Z,14.97
2022-11-18T02:27:17.511Z,12.37
2022-11-18T02:30:08.609Z,17.37
2022-11-18T02:32:57.454Z,12.43
2022-11-18T02:35:48.091Z,13.97
2022-11-18T02:38:42.542Z,14.57
2022-11-18T02:41:32.728Z,15.17
2022-11-18T02:44:22.784Z,15.73
2022-11-18T02:47:14.891Z,15.67
2022-11-18T02:50:05.207Z,17.97
2022-11-18T02:52:55.878Z,15.43
2022-11-18T02:55:44.326Z,18.13
2022-11-18T02:58:30.862Z,18.97
2022-11-18T03:01:22.286Z,18.40
2022-11-18T03:04:10.314Z,16.43
2022-11-18T03:07:05.764Z,16.73
2022-11-18T03:09:53.777Z,14.13
2022-11-18T03:12:46.347Z,16.30
2022-11-18T03:15:38.577Z,14.87
2022-11-18T03:18:32.828Z,13.93
2022-11-18T03:21:25.941Z,15.73
2022-11-18T03:24:18.999Z,12.97
2022-11-18T03:27:12.131Z,15.67
2022-11-18T03:30:03.458Z,13.30
2022-11-18T03:32:57.421Z,12.97
2022-11-18T03:35:47.417Z,12.63
2022-11-18T03:38:39.803Z,11.63
2022-11-18T03:41:30.681Z,14.73
2022-11-18T03:44:24.861Z,12.47
2022-11-18T03:47:16.193Z,11.10
2022-11-18T03:50:08.710Z,14.27
2022-11-18T03:52:56.223Z,10.10
2022-11-18T03:55:49.121Z,10.90
2022-11-18T03:58:42.531Z,10.10
2022-11-18T04:01:35.832Z,12.27
2022-11-18T04:04:24.133Z,10.13
2022-11-18T04:07:16.245Z,11.13
2022-11-18T04:10:08.907Z,13.17
2022-11-18T04:13:06.144Z,9.50
2022-11-18T04:15:55.551Z,9.53
2022-11-18T04:18:42.026Z,10.03
2022-11-18T04:21:28.509Z,10.33
2022-11-18T04:24:15.033Z,7.97
2022-11-18T04:27:02.620Z,8.60
2022-11-18T04:29:50.852Z,8.53
2022-11-18T04:32:37.501Z,11.53
2022-11-18T04:35:23.955Z,9.23
2022-11-18T04:38:10.502Z,7.07
2022-11-18T04:40:57.122Z,8.17
2022-11-18T04:43:43.823Z,6.93
2022-11-18T04:46:31.810Z,7.70
2022-11-18T04:49:19.142Z,7.20
2022-11-18T04:52:06.717Z,5.97
2022-11-18T04:54:53.738Z,7.67
2022-11-18T04:57:40.249Z,7.43
2022-11-18T05:00:26.720Z,6.47
2022-11-18T05:03:16.280Z,7.43
2022-11-18T05:06:03.047Z,6.50
2022-11-18T05:08:49.732Z,7.37
2022-11-18T05:11:53.937Z,7.70
2022-11-18T05:14:43.085Z,6.90
2022-11-18T05:17:36.068Z,6.43
2022-11-18T05:20:24.093Z,7.53
2022-11-18T05:23:10.913Z,6.47
2022-11-18T05:26:02.299Z,7.13
2022-11-18T05:28:49.639Z,7.63
2022-11-18T05:31:36.003Z,8.97
2022-11-18T05:34:22.955Z,6.60
2022-11-18T05:37:11.267Z,7.40
2022-11-18T05:39:57.586Z,8.13
2022-11-18T05:42:58.031Z,9.03
2022-11-18T05:45:45.290Z,7.57
2022-11-18T05:48:31.959Z,8.50
2022-11-18T05:51:18.462Z,8.60
2022-11-18T05:54:09.899Z,6.87
2022-11-18T05:56:56.524Z,7.03
2022-11-18T05:59:42.828Z,7.50
2022-11-18T06:02:30.780Z,7.70
2022-11-18T06:05:19.894Z,9.00
2022-11-18T06:08:06.588Z,10.47
2022-11-18T06:10:54.834Z,9.50
2022-11-18T06:13:50.487Z,8.20
2022-11-18T06:16:40.958Z,7.03
2022-11-18T06:19:27.960Z,9.57
2022-11-18T06:22:14.973Z,7.57
2022-11-18T06:25:02.133Z,7.67
2022-11-18T06:27:52.294Z,7.43
2022-11-18T06:30:38.707Z,12.57
2022-11-18T06:33:25.353Z,8.80
2022-11-18T06:36:11.926Z,8.73
2022-11-18T06:39:03.041Z,8.67
2022-11-18T06:41:49.458Z,11.03
2022-11-18T06:44:36.385Z,10.93
2022-11-18T06:47:22.985Z,9.97
2022-11-18T06:50:10.286Z,9.93
2022-11-18T06:52:57.116Z,21.43
2022-11-18T06:55:44.156Z,8.00
2022-11-18T06:58:30.581Z,17.20
2022-11-18T07:01:22.310Z,10.13
2022-11-18T07:04:09.540Z,10.77
2022-11-18T07:06:56.264Z,9.83
2022-11-18T07:09:42.773Z,9.10
2022-11-18T07:12:30.067Z,13.90
2022-11-18T07:15:16.952Z,12.17
2022-11-18T07:18:05.115Z,13.03
2022-11-18T07:20:51.693Z,11.57
2022-11-18T07:23:38.525Z,13.87
2022-11-18T07:26:25.045Z,12.13
2022-11-18T07:29:12.065Z,11.87
2022-11-18T07:31:58.947Z,15.77
2022-11-18T07:34:46.859Z,11.10
2022-11-18T07:37:33.604Z,11.67
2022-11-18T07:40:20.167Z,11.43
2022-11-18T07:43:07.319Z,13.33
2022-11-18T07:45:53.912Z,13.50
2022-11-18T07:48:40.474Z,17.13
2022-11-18T07:51:30.086Z,12.20
2022-11-18T07:54:17.752Z,13.80
2022-11-18T07:57:04.251Z,13.43
2022-11-18T07:59:50.790Z,12.80
2022-11-18T08:02:37.245Z,12.67
2022-11-18T08:05:23.833Z,13.27
2022-11-18T08:08:11.908Z,12.13
2022-11-18T08:10:59.082Z,10.60
2022-11-18T08:13:46.116Z,11.67
2022-11-18T08:16:32.681Z,11.50
2022-11-18T08:19:19.345Z,11.67
2022-11-18T08:22:06.199Z,10.53
2022-11-18T08:24:54.147Z,10.87
2022-11-18T08:27:40.791Z,13.17
2022-11-18T08:30:27.349Z,13.33
2022-11-18T08:33:13.851Z,11.50
2022-11-18T08:36:00.241Z,12.90
2022-11-18T08:38:46.731Z,12.00
2022-11-18T08:41:36.247Z,10.37
2022-11-18T08:44:23.074Z,11.33
2022-11-18T08:47:09.702Z,11.43
2022-11-18T08:49:56.421Z,12.80
2022-11-18T08:52:42.946Z,13.47
2022-11-18T08:55:29.459Z,11.43
2022-11-18T08:58:17.313Z,11.50
2022-11-18T09:01:07.169Z,13.70
2022-11-18T09:03:54.227Z,14.93
2022-11-18T09:06:40.900Z,16.73
2022-11-18T09:09:27.649Z,21.33
2022-11-18T09:12:14.976Z,18.47
2022-11-18T09:15:13.330Z,16.77
2022-11-18T09:18:01.011Z,19.23
2022-11-18T09:20:55.771Z,22.53
2022-11-18T09:23:42.391Z,23.70
2022-11-18T09:26:28.911Z,21.33
2022-11-18T09:29:15.785Z,19.93
2022-11-18T09:32:04.180Z,19.93
2022-11-18T09:34:50.571Z,19.10
2022-11-18T09:37:36.958Z,22.60
2022-11-18T09:40:23.683Z,23.37
2022-11-18T09:43:20.115Z,20.70
2022-11-18T09:46:21.100Z,29.10
2022-11-18T09:49:16.239Z,23.33
2022-11-18T09:52:04.378Z,21.40
2022-11-18T09:54:51.538Z,21.87
2022-11-18T09:57:40.891Z,21.70
2022-11-18T10:00:30.237Z,19.70
2022-11-18T10:03:24.455Z,23.13
2022-11-18T10:06:23.917Z,22.10
2022-11-18T10:09:21.607Z,21.17
2022-11-18T10:12:22.481Z,23.60
2022-11-18T10:15:20.911Z,21.23
2022-11-18T10:18:44.889Z,22.30
2022-11-18T10:21:40.250Z,23.97
2022-11-18T10:24:31.382Z,18.83
2022-11-18T10:27:19.469Z,25.63
2022-11-18T10:30:13.712Z,17.20
2022-11-18T10:33:02.200Z,16.93
2022-11-18T10:35:49.748Z,19.33
2022-11-18T10:38:37.667Z,20.57
2022-11-18T10:41:24.266Z,23.37
2022-11-18T10:44:32.979Z,21.97
2022-11-18T10:47:31.886Z,26.13
2022-11-18T10:50:30.965Z,19.83
2022-11-18T10:53:31.959Z,20.60
2022-11-18T10:56:20.093Z,17.83
2022-11-18T10:59:12.902Z,20.93
2022-11-18T11:02:06.871Z,22.90
2022-11-18T11:04:56.461Z,21.70
2022-11-18T11:07:43.264Z,20.37
2022-11-18T11:10:29.985Z,19.40
2022-11-18T11:13:18.689Z,20.83
2022-11-18T11:16:07.215Z,19.03
2022-11-18T11:19:01.005Z,18.20
2022-11-18T11:21:47.608Z,17.60
2022-11-18T11:24:34.279Z,21.23
2022-11-18T11:31:04.793Z,18.90
2022-11-18T11:33:57.366Z,19.53
2022-11-18T11:36:51.518Z,17.00
2022-11-18T11:39:58.369Z,20.00
2022-11-18T11:42:51.303Z,19.30
2022-11-18T11:45:48.391Z,16.07
2022-11-18T11:48:50.323Z,17.70
2022-11-18T11:51:43.637Z,19.90
2022-11-18T11:54:44.572Z,18.67
2022-11-18T11:57:40.600Z,19.77
2022-11-18T12:00:28.836Z,17.07
2022-11-18T12:03:51.651Z,17.60
2022-11-18T12:06:42.579Z,19.73
2022-11-18T12:09:40.538Z,17.87
2022-11-18T12:12:36.536Z,13.03
2022-11-18T12:15:35.238Z,15.17
2022-11-18T12:18:27.718Z,15.53
2022-11-18T12:21:47.913Z,16.83
2022-11-18T12:24:38.424Z,15.27
2022-11-18T12:27:58.937Z,14.53
2022-11-18T12:30:45.558Z,14.87
2022-11-18T12:33:32.416Z,15.73
2022-11-18T12:36:27.067Z,17.30
2022-11-18T12:39:53.234Z,12.90
2022-11-18T12:43:01.377Z,20.27
2022-11-18T12:45:54.891Z,15.27
2022-11-18T12:48:42.192Z,16.77
2022-11-18T12:51:50.083Z,19.00
2022-11-18T12:54:38.874Z,16.63
2022-11-18T12:57:29.361Z,14.40
2022-11-18T13:00:31.605Z,14.43
2022-11-18T13:03:24.426Z,15.37
2022-11-18T13:06:24.270Z,20.60
2022-11-18T13:09:18.381Z,14.60
2022-11-18T13:12:09.659Z,13.07
2022-11-18T13:15:20.038Z,14.63
2022-11-18T13:18:14.958Z,12.10
2022-11-18T13:21:23.358Z,11.40
2022-11-18T13:24:12.247Z,10.63
2022-11-18T13:27:00.470Z,12.50
2022-11-18T13:29:54.199Z,10.00
2022-11-18T13:32:45.903Z,11.33
2022-11-18T13:35:33.847Z,11.67
2022-11-18T13:38:28.093Z,10.77
2022-11-18T13:41:22.613Z,10.87
2022-11-18T13:44:16.990Z,13.53
2022-11-18T13:47:09.975Z,11.13
2022-11-18T13:50:12.710Z,11.80
2022-11-18T13:53:14.961Z,11.90
2022-11-18T13:56:04.724Z,11.27
2022-11-18T13:59:17.282Z,9.20
2022-11-18T14:02:03.441Z,12.77
2022-11-18T14:04:54.974Z,12.93
2022-11-18T14:07:42.441Z,13.57
2022-11-18T14:10:40.023Z,12.90
2022-11-18T14:13:28.996Z,12.33
2022-11-18T14:16:33.737Z,13.43
2022-11-18T14:19:31.215Z,16.57
2022-11-18T14:22:20.235Z,14.93
2022-11-18T14:25:19.798Z,14.23
2022-11-18T14:28:23.884Z,17.03
2022-11-18T14:31:25.197Z,15.10
2022-11-18T14:34:19.311Z,18.77
2022-11-18T14:37:12.106Z,15.10
2022-11-18T14:39:59.105Z,15.93
2022-11-18T14:42:45.801Z,16.93
2022-11-18T14:45:33.713Z,15.47
2022-11-18T14:48:26.019Z,17.70
2022-11-18T14:51:16.079Z,15.83
2022-11-18T14:54:02.556Z,17.30
2022-11-18T14:56:51.001Z,16.70
2022-11-18T14:59:37.664Z,16.23
2022-11-18T15:02:25.531Z,16.87
2022-11-18T15:05:12.433Z,18.37
2022-11-18T15:07:59.286Z,14.77
2022-11-18T15:10:45.710Z,14.27
2022-11-18T15:13:32.126Z,15.67
2022-11-18T15:16:20.194Z,15.53
2022-11-18T15:19:15.015Z,13.63
2022-11-18T15:22:01.515Z,14.00
2022-11-18T15:24:47.842Z,13.87
2022-11-18T15:27:34.449Z,11.67
2022-11-18T15:30:21.275Z,13.33
2022-11-18T15:33:07.799Z,13.77
2022-11-18T15:35:55.768Z,14.17
2022-11-18T15:38:42.801Z,13.43
2022-11-18T15:41:30.983Z,17.30
2022-11-18T15:44:17.790Z,14.73
2022-11-18T15:47:04.637Z,15.13
2022-11-18T15:49:51.419Z,16.30
2022-11-18T15:52:39.266Z,15.93
2022-11-18T15:55:26.111Z,17.20
2022-11-18T15:58:12.582Z,15.00
2022-11-18T16:00:59.253Z,17.00
2022-11-18T16:03:46.300Z,16.00
2022-11-18T16:06:33.718Z,15.83
2022-11-18T16:09:21.801Z,17.70
2022-11-18T16:12:28.083Z,17.20
2022-11-18T16:15:32.388Z,14.73
2022-11-18T16:18:19.728Z,18.13
2022-11-18T16:21:06.466Z,17.60
2022-11-18T16:23:56.270Z,20.27
2022-11-18T16:26:44.002Z,17.80
2022-11-18T16:29:30.760Z,15.43
2022-11-18T16:32:17.230Z,19.67
2022-11-18T16:35:03.779Z,20.53
2022-11-18T16:37:50.335Z,20.87
2022-11-18T16:40:36.683Z,19.83
2022-11-18T16:43:24.626Z,19.47
2022-11-18T16:46:12.161Z,18.70
2022-11-18T16:48:59.197Z,21.43
2022-11-18T16:51:47.582Z,18.60
2022-11-18T16:54:37.159Z,17.90
2022-11-18T16:57:26.387Z,18.17
2022-11-18T17:00:15.409Z,19.47
2022-11-18T17:03:03.569Z,21.47
2022-11-18T17:05:50.230Z,18.90
2022-11-18T17:08:37.396Z,20.80
2022-11-18T17:11:23.856Z,19.40
2022-11-18T17:14:10.650Z,18.10
2022-11-18T17:16:58.839Z,18.57
2022-11-18T17:19:45.774Z,17.87
2022-11-18T17:22:32.240Z,19.43
2022-11-18T17:25:18.758Z,19.47
2022-11-18T17:28:05.836Z,18.93
2022-11-18T17:30:52.427Z,18.80
2022-11-18T17:33:41.188Z,21.67
2022-11-18T17:36:28.608Z,21.97
2022-11-18T17:39:16.085Z,20.57
2022-11-18T17:42:22.483Z,20.00
2022-11-18T17:45:10.303Z,19.97
2022-11-18T17:47:58.165Z,16.77
2022-11-18T17:50:46.480Z,17.30
2022-11-18T17:53:33.702Z,20.37
2022-11-18T17:56:21.458Z,20.47
2022-11-18T17:59:08.593Z,20.97
2022-11-18T18:01:59.265Z,17.93
2022-11-18T18:04:46.628Z,17.93
2022-11-18T18:07:34.273Z,19.37
2022-11-18T18:10:21.956Z,17.80
2022-11-18T18:13:26.655Z,21.00
2022-11-18T18:16:13.525Z,22.93
2022-11-18T18:19:00.275Z,21.70
2022-11-18T18:21:47.488Z,19.27
2022-11-18T18:24:35.503Z,18.10
2022-11-18T18:27:22.095Z,18.97
2022-11-18T18:30:10.244Z,18.40
2022-11-18T18:32:56.959Z,22.43
2022-11-18T18:35:43.761Z,18.67
2022-11-18T18:38:33.298Z,19.80
2022-11-18T18:41:23.483Z,23.57
2022-11-18T18:44:15.208Z,20.20
2022-11-18T18:47:02.698Z,18.63
2022-11-18T18:49:49.246Z,18.67
2022-11-18T18:52:35.897Z,18.50
2022-11-18T18:55:22.806Z,17.77
2022-11-18T18:58:11.009Z,17.53
2022-11-18T19:01:06.573Z,23.13
2022-11-18T19:03:56.382Z,18.10
2022-11-18T19:06:56.798Z,17.47
2022-11-18T19:09:45.274Z,17.63
2022-11-18T19:12:52.034Z,18.60
2022-11-18T19:15:42.420Z,17.47
2022-11-18T19:18:28.967Z,18.90
2022-11-18T19:21:15.832Z,15.53
2022-11-18T19:24:03.222Z,22.43
2022-11-18T19:26:49.677Z,17.30
2022-11-18T19:29:36.189Z,14.90
2022-11-18T19:32:24.412Z,20.17
2022-11-18T19:35:11.244Z,14.43
2022-11-18T19:37:57.626Z,15.13
2022-11-18T19:40:44.890Z,19.10
2022-11-18T19:43:31.784Z,15.00
2022-11-18T19:46:18.147Z,17.40
2022-11-18T19:49:06.030Z,16.83
2022-11-18T19:51:52.901Z,14.73
2022-11-18T19:54:41.111Z,14.47
2022-11-18T19:57:27.760Z,14.83
2022-11-18T20:00:15.458Z,15.07
2022-11-18T20:03:02.121Z,13.03
2022-11-18T20:05:52.833Z,15.60
2022-11-18T20:08:40.923Z,15.57
2022-11-18T20:11:28.090Z,17.87
2022-11-18T20:14:15.194Z,15.53
2022-11-18T20:17:01.615Z,15.97
2022-11-18T20:19:47.962Z,13.17
2022-11-18T20:22:35.810Z,12.37
2022-11-18T20:25:22.402Z,14.03
2022-11-18T20:28:11.402Z,14.63
2022-11-18T20:30:59.967Z,13.27
2022-11-18T20:33:49.654Z,12.00
2022-11-18T20:36:37.533Z,14.70
2022-11-18T20:39:25.733Z,12.67
2022-11-18T20:42:29.873Z,13.73
2022-11-18T20:45:16.706Z,13.20
2022-11-18T20:48:03.293Z,13.43
2022-11-18T20:50:50.291Z,15.03
2022-11-18T20:53:37.946Z,14.97
2022-11-18T20:56:27.147Z,12.80
2022-11-18T20:59:13.833Z,13.13
2022-11-18T21:02:00.230Z,15.07
2022-11-18T21:04:46.959Z,13.57
2022-11-18T21:07:34.176Z,14.03
2022-11-18T21:10:21.291Z,12.93
2022-11-18T21:13:26.979Z,16.10
2022-11-18T21:16:13.637Z,13.73
2022-11-18T21:19:00.210Z,14.27
2022-11-18T21:21:48.780Z,13.53
2022-11-18T21:24:35.900Z,14.87
2022-11-18T21:27:22.427Z,15.20
2022-11-18T21:30:11.977Z,13.93
2022-11-18T21:32:58.727Z,12.80
2022-11-18T21:35:45.275Z,12.77
2022-11-18T21:38:31.962Z,12.57
2022-11-18T21:41:19.063Z,14.37
2022-11-18T21:44:08.878Z,14.30
2022-11-18T21:46:57.645Z,13.53
2022-11-18T21:49:44.455Z,12.37
2022-11-18T21:52:30.856Z,12.50
2022-11-18T21:55:17.721Z,13.10
2022-11-18T21:58:04.766Z,14.00
2022-11-18T22:00:51.299Z,11.93
2022-11-18T22:03:41.050Z,13.80
2022-11-18T22:06:31.563Z,9.37
2022-11-18T22:09:18.516Z,11.03
2022-11-18T22:12:06.827Z,10.57
2022-11-18T22:14:53.814Z,13.50
2022-11-18T22:17:40.254Z,12.47
2022-11-18T22:20:28.167Z,10.70
2022-11-18T22:23:14.845Z,10.67
2022-11-18T22:26:04.484Z,10.73
2022-11-18T22:28:54.773Z,11.60
2022-11-18T22:31:41.674Z,9.67
2022-11-18T22:34:29.373Z,11.33
2022-11-18T22:37:17.514Z,9.80
2022-11-18T22:40:04.652Z,10.53
2022-11-18T22:42:50.596Z,9.77
2022-11-18T22:45:37.597Z,7.67
2022-11-18T22:48:24.135Z,8.33
2022-11-18T22:51:10.594Z,9.53
2022-11-18T22:54:22.832Z,7.73
2022-11-18T22:57:05.171Z,10.13
2022-11-18T22:59:52.351Z,9.37
2022-11-18T23:02:38.866Z,9.67
2022-11-18T23:05:25.316Z,11.17
2022-11-18T23:08:11.810Z,9.40
2022-11-18T23:11:04.291Z,9.27
2022-11-18T23:14:04.503Z,10.10
2022-11-18T23:16:51.123Z,9.57
2022-11-18T23:19:42.002Z,9.17
2022-11-18T23:22:28.895Z,10.57
2022-11-18T23:25:15.318Z,10.07
2022-11-18T23:28:03.519Z,9.60
2022-11-18T23:30:50.260Z,8.53
2022-11-18T23:33:37.290Z,9.20
2022-11-18T23:36:25.317Z,8.77
2022-11-18T23:39:12.106Z,10.37
2022-11-18T23:41:59.060Z,8.50
2022-11-18T23:44:47.259Z,8.87
2022-11-18T23:47:34.146Z,9.23
2022-11-18T23:50:20.646Z,12.37
2022-11-18T23:53:07.112Z,10.23
2022-11-18T23:55:54.322Z,8.50
2022-11-18T23:58:42.759Z,8.97
